sensor_id;sensor_type;location;lat;lon;timestamp;temperature;humidity
31819;DHT22;18384;48.860;9.188;2022-10-17T00:01:54;16.00;99.90
31819;DHT22;18384;48.860;9.188;2022-10-17T00:04:20;16.00;99.90
31819;DHT22;18384;48.860;9.188;2022-10-17T00:06:46;15.90;99.90
31819;DHT22;18384;48.860;9.188;2022-10-17T00:09:12;16.00;99.90
31819;DHT22;18384;48.860;9.188;2022-10-17T00:11:39;15.90;99.90
31819;DHT22;18384;48.860;9.188;2022-10-17T00:14:05;15.90;99.90
31819;DHT22;18384;48.860;9.188;2022-10-17T00:16:33;15.90;99.90
31819;DHT22;18384;48.860;9.188;2022-10-17T00:19:05;15.90;99.90
31819;DHT22;18384;48.860;9.188;2022-10-17T00:21:32;15.90;99.90
31819;DHT22;18384;48.860;9.188;2022-10-17T00:23:59;15.90;99.90
31819;DHT22;18384;48.860;9.188;2022-10-17T00:26:26;15.90;99.90
31819;DHT22;18384;48.860;9.188;2022-10-17T00:28:54;16.00;99.90
31819;DHT22;18384;48.860;9.188;2022-10-17T00:31:21;15.80;99.90
31819;DHT22;18384;48.860;9.188;2022-10-17T00:33:48;15.80;99.90
31819;DHT22;18384;48.860;9.188;2022-10-17T00:36:15;15.80;99.90
31819;DHT22;18384;48.860;9.188;2022-10-17T00:38:44;15.80;99.90
31819;DHT22;18384;48.860;9.188;2022-10-17T00:41:14;16.20;99.90
31819;DHT22;18384;48.860;9.188;2022-10-17T00:44:56;15.70;99.90
31819;DHT22;18384;48.860;9.188;2022-10-17T00:47:24;15.70;99.90
31819;DHT22;18384;48.860;9.188;2022-10-17T00:49:50;15.70;99.90
31819;DHT22;18384;48.860;9.188;2022-10-17T00:52:20;15.70;99.90
31819;DHT22;18384;48.860;9.188;2022-10-17T00:54:57;15.70;99.90
31819;DHT22;18384;48.860;9.188;2022-10-17T00:57:26;15.70;99.90
31819;DHT22;18384;48.860;9.188;2022-10-17T00:59:56;15.70;99.90
31819;DHT22;18384;48.860;9.188;2022-10-17T01:02:23;15.60;99.90
31819;DHT22;18384;48.860;9.188;2022-10-17T01:04:51;15.60;99.90
31819;DHT22;18384;48.860;9.188;2022-10-17T01:07:20;15.60;99.90
31819;DHT22;18384;48.860;9.188;2022-10-17T01:09:46;15.60;99.90
31819;DHT22;18384;48.860;9.188;2022-10-17T01:12:24;15.60;99.90
31819;DHT22;18384;48.860;9.188;2022-10-17T01:15:24;15.60;99.90
31819;DHT22;18384;48.860;9.188;2022-10-17T01:20:14;15.60;99.90
31819;DHT22;18384;48.860;9.188;2022-10-17T01:30:44;15.50;99.90
31819;DHT22;18384;48.860;9.188;2022-10-17T01:34:04;15.50;99.90
31819;DHT22;18384;48.860;9.188;2022-10-17T01:38:13;15.40;99.90
31819;DHT22;18384;48.860;9.188;2022-10-17T01:41:01;15.40;99.90
31819;DHT22;18384;48.860;9.188;2022-10-17T01:43:46;15.40;99.90
31819;DHT22;18384;48.860;9.188;2022-10-17T01:46:21;15.40;99.90
31819;DHT22;18384;48.860;9.188;2022-10-17T01:48:52;15.30;99.90
31819;DHT22;18384;48.860;9.188;2022-10-17T01:51:47;15.30;99.90
31819;DHT22;18384;48.860;9.188;2022-10-17T01:54:39;15.30;99.90
31819;DHT22;18384;48.860;9.188;2022-10-17T01:57:13;15.30;99.90
31819;DHT22;18384;48.860;9.188;2022-10-17T01:59:47;15.30;99.90
31819;DHT22;18384;48.860;9.188;2022-10-17T02:02:17;15.20;99.90
31819;DHT22;18384;48.860;9.188;2022-10-17T02:04:46;15.20;99.90
31819;DHT22;18384;48.860;9.188;2022-10-17T02:07:15;15.20;99.90
31819;DHT22;18384;48.860;9.188;2022-10-17T02:09:41;15.20;99.90
31819;DHT22;18384;48.860;9.188;2022-10-17T02:22:03;15.20;99.90
31819;DHT22;18384;48.860;9.188;2022-10-17T02:25:47;15.10;99.90
31819;DHT22;18384;48.860;9.188;2022-10-17T02:29:37;15.10;99.90
31819;DHT22;18384;48.860;9.188;2022-10-17T02:32:20;15.10;99.90
31819;DHT22;18384;48.860;9.188;2022-10-17T02:34:52;15.00;99.90
31819;DHT22;18384;48.860;9.188;2022-10-17T02:37:24;15.00;99.90
31819;DHT22;18384;48.860;9.188;2022-10-17T02:39:54;15.00;99.90
31819;DHT22;18384;48.860;9.188;2022-10-17T02:42:23;15.00;99.90
31819;DHT22;18384;48.860;9.188;2022-10-17T02:44:50;15.00;99.90
31819;DHT22;18384;48.860;9.188;2022-10-17T02:47:38;15.00;99.90
31819;DHT22;18384;48.860;9.188;2022-10-17T02:50:21;15.00;99.90
31819;DHT22;18384;48.860;9.188;2022-10-17T02:52:57;15.00;99.90
31819;DHT22;18384;48.860;9.188;2022-10-17T02:55:32;14.90;99.90
31819;DHT22;18384;48.860;9.188;2022-10-17T02:58:16;15.00;99.90
31819;DHT22;18384;48.860;9.188;2022-10-17T03:00:44;15.00;99.90
31819;DHT22;18384;48.860;9.188;2022-10-17T03:03:25;14.90;99.90
31819;DHT22;18384;48.860;9.188;2022-10-17T03:05:53;14.90;99.90
31819;DHT22;18384;48.860;9.188;2022-10-17T03:08:20;15.00;99.90
31819;DHT22;18384;48.860;9.188;2022-10-17T03:10:46;14.90;99.90
31819;DHT22;18384;48.860;9.188;2022-10-17T03:13:13;14.90;99.90
31819;DHT22;18384;48.860;9.188;2022-10-17T03:15:39;14.90;99.90
31819;DHT22;18384;48.860;9.188;2022-10-17T03:18:05;14.90;99.90
31819;DHT22;18384;48.860;9.188;2022-10-17T03:20:32;14.40;99.90
31819;DHT22;18384;48.860;9.188;2022-10-17T03:22:58;14.90;99.90
31819;DHT22;18384;48.860;9.188;2022-10-17T03:25:24;14.90;99.90
31819;DHT22;18384;48.860;9.188;2022-10-17T03:27:51;14.90;99.90
31819;DHT22;18384;48.860;9.188;2022-10-17T03:30:18;14.80;99.90
31819;DHT22;18384;48.860;9.188;2022-10-17T03:32:44;14.80;99.90
31819;DHT22;18384;48.860;9.188;2022-10-17T03:35:10;14.80;99.90
31819;DHT22;18384;48.860;9.188;2022-10-17T03:37:37;14.80;99.90
31819;DHT22;18384;48.860;9.188;2022-10-17T03:40:03;14.80;99.90
31819;DHT22;18384;48.860;9.188;2022-10-17T03:42:30;14.80;99.90
31819;DHT22;18384;48.860;9.188;2022-10-17T03:44:57;14.80;99.90
31819;DHT22;18384;48.860;9.188;2022-10-17T03:47:23;14.80;99.90
31819;DHT22;18384;48.860;9.188;2022-10-17T03:49:49;14.80;99.90
31819;DHT22;18384;48.860;9.188;2022-10-17T03:52:18;14.70;99.90
31819;DHT22;18384;48.860;9.188;2022-10-17T03:54:44;14.80;99.90
31819;DHT22;18384;48.860;9.188;2022-10-17T03:57:10;14.70;99.90
31819;DHT22;18384;48.860;9.188;2022-10-17T03:59:36;14.70;99.90
31819;DHT22;18384;48.860;9.188;2022-10-17T04:02:02;14.70;99.90
31819;DHT22;18384;48.860;9.188;2022-10-17T04:04:28;14.70;99.90
31819;DHT22;18384;48.860;9.188;2022-10-17T04:06:54;14.70;99.90
31819;DHT22;18384;48.860;9.188;2022-10-17T04:09:20;14.70;99.90
31819;DHT22;18384;48.860;9.188;2022-10-17T04:11:46;14.70;99.90
31819;DHT22;18384;48.860;9.188;2022-10-17T04:14:12;14.70;99.90
31819;DHT22;18384;48.860;9.188;2022-10-17T04:16:39;14.70;99.90
31819;DHT22;18384;48.860;9.188;2022-10-17T04:19:05;14.70;99.90
31819;DHT22;18384;48.860;9.188;2022-10-17T04:21:31;14.70;99.90
31819;DHT22;18384;48.860;9.188;2022-10-17T04:23:59;14.70;99.90
31819;DHT22;18384;48.860;9.188;2022-10-17T04:26:26;14.70;99.90
31819;DHT22;18384;48.860;9.188;2022-10-17T04:28:52;14.70;99.90
31819;DHT22;18384;48.860;9.188;2022-10-17T04:31:18;14.60;99.90
31819;DHT22;18384;48.860;9.188;2022-10-17T04:33:48;14.70;99.90
31819;DHT22;18384;48.860;9.188;2022-10-17T04:36:17;14.60;99.90
31819;DHT22;18384;48.860;9.188;2022-10-17T04:38:44;14.60;99.90
31819;DHT22;18384;48.860;9.188;2022-10-17T04:41:13;14.60;99.90
31819;DHT22;18384;48.860;9.188;2022-10-17T04:43:40;14.60;99.90
31819;DHT22;18384;48.860;9.188;2022-10-17T04:46:08;14.60;99.90
31819;DHT22;18384;48.860;9.188;2022-10-17T04:48:37;14.70;99.90
31819;DHT22;18384;48.860;9.188;2022-10-17T04:51:06;14.70;99.90
31819;DHT22;18384;48.860;9.188;2022-10-17T04:53:36;14.70;99.90
31819;DHT22;18384;48.860;9.188;2022-10-17T04:56:11;14.70;99.90
31819;DHT22;18384;48.860;9.188;2022-10-17T04:58:40;14.80;99.90
31819;DHT22;18384;48.860;9.188;2022-10-17T05:01:08;14.80;99.90
31819;DHT22;18384;48.860;9.188;2022-10-17T05:03:36;14.80;99.90
31819;DHT22;18384;48.860;9.188;2022-10-17T05:06:09;14.70;99.90
31819;DHT22;18384;48.860;9.188;2022-10-17T05:08:39;14.70;99.90
31819;DHT22;18384;48.860;9.188;2022-10-17T05:11:18;14.80;99.90
31819;DHT22;18384;48.860;9.188;2022-10-17T05:13:52;14.70;99.90
31819;DHT22;18384;48.860;9.188;2022-10-17T05:16:19;14.70;99.90
31819;DHT22;18384;48.860;9.188;2022-10-17T05:18:49;14.70;99.90
31819;DHT22;18384;48.860;9.188;2022-10-17T05:21:19;14.60;99.90
31819;DHT22;18384;48.860;9.188;2022-10-17T05:23:45;14.60;99.90
31819;DHT22;18384;48.860;9.188;2022-10-17T05:26:12;14.70;99.90
31819;DHT22;18384;48.860;9.188;2022-10-17T05:28:38;14.70;99.90
31819;DHT22;18384;48.860;9.188;2022-10-17T05:31:05;14.70;99.90
31819;DHT22;18384;48.860;9.188;2022-10-17T05:33:32;14.70;99.90
31819;DHT22;18384;48.860;9.188;2022-10-17T05:35:58;14.70;99.90
31819;DHT22;18384;48.860;9.188;2022-10-17T05:38:25;14.80;99.90
31819;DHT22;18384;48.860;9.188;2022-10-17T05:40:59;14.70;99.90
31819;DHT22;18384;48.860;9.188;2022-10-17T05:43:26;14.70;99.90
31819;DHT22;18384;48.860;9.188;2022-10-17T05:45:52;14.70;99.90
31819;DHT22;18384;48.860;9.188;2022-10-17T05:48:18;14.70;99.90
31819;DHT22;18384;48.860;9.188;2022-10-17T05:50:45;14.70;99.90
31819;DHT22;18384;48.860;9.188;2022-10-17T05:53:11;14.60;99.90
31819;DHT22;18384;48.860;9.188;2022-10-17T05:55:37;14.70;99.90
31819;DHT22;18384;48.860;9.188;2022-10-17T05:58:03;14.70;99.90
31819;DHT22;18384;48.860;9.188;2022-10-17T06:00:29;14.60;99.90
31819;DHT22;18384;48.860;9.188;2022-10-17T06:02:56;14.90;99.90
31819;DHT22;18384;48.860;9.188;2022-10-17T06:05:22;14.40;99.90
31819;DHT22;18384;48.860;9.188;2022-10-17T06:07:48;14.60;99.90
31819;DHT22;18384;48.860;9.188;2022-10-17T06:10:17;14.60;99.90
31819;DHT22;18384;48.860;9.188;2022-10-17T06:12:44;14.70;99.90
31819;DHT22;18384;48.860;9.188;2022-10-17T06:15:11;14.70;99.90
31819;DHT22;18384;48.860;9.188;2022-10-17T06:17:37;14.70;99.90
31819;DHT22;18384;48.860;9.188;2022-10-17T06:20:04;14.70;99.90
31819;DHT22;18384;48.860;9.188;2022-10-17T06:22:30;14.70;99.90
31819;DHT22;18384;48.860;9.188;2022-10-17T06:24:56;14.70;99.90
31819;DHT22;18384;48.860;9.188;2022-10-17T06:27:23;14.80;99.90
31819;DHT22;18384;48.860;9.188;2022-10-17T06:29:49;14.80;99.90
31819;DHT22;18384;48.860;9.188;2022-10-17T06:32:15;14.80;99.90
31819;DHT22;18384;48.860;9.188;2022-10-17T06:34:41;14.80;99.90
31819;DHT22;18384;48.860;9.188;2022-10-17T06:37:08;14.80;99.90
31819;DHT22;18384;48.860;9.188;2022-10-17T06:39:34;14.80;99.90
31819;DHT22;18384;48.860;9.188;2022-10-17T06:42:01;14.80;99.90
31819;DHT22;18384;48.860;9.188;2022-10-17T06:44:28;14.90;99.90
31819;DHT22;18384;48.860;9.188;2022-10-17T06:46:57;14.90;99.90
31819;DHT22;18384;48.860;9.188;2022-10-17T06:49:24;14.90;99.90
31819;DHT22;18384;48.860;9.188;2022-10-17T06:51:50;14.90;99.90
31819;DHT22;18384;48.860;9.188;2022-10-17T06:54:16;15.00;99.90
31819;DHT22;18384;48.860;9.188;2022-10-17T06:56:42;15.00;99.90
31819;DHT22;18384;48.860;9.188;2022-10-17T06:59:09;15.00;99.90
31819;DHT22;18384;48.860;9.188;2022-10-17T07:01:35;15.10;99.90
31819;DHT22;18384;48.860;9.188;2022-10-17T07:04:01;15.10;99.90
31819;DHT22;18384;48.860;9.188;2022-10-17T07:06:27;15.20;99.90
31819;DHT22;18384;48.860;9.188;2022-10-17T07:08:54;15.20;99.90
31819;DHT22;18384;48.860;9.188;2022-10-17T07:11:21;15.30;99.90
31819;DHT22;18384;48.860;9.188;2022-10-17T07:13:47;15.30;99.90
31819;DHT22;18384;48.860;9.188;2022-10-17T07:16:15;15.70;99.90
31819;DHT22;18384;48.860;9.188;2022-10-17T07:18:41;15.40;99.90
31819;DHT22;18384;48.860;9.188;2022-10-17T07:21:08;15.50;99.90
31819;DHT22;18384;48.860;9.188;2022-10-17T07:23:35;15.50;99.90
31819;DHT22;18384;48.860;9.188;2022-10-17T07:26:07;15.50;99.90
31819;DHT22;18384;48.860;9.188;2022-10-17T07:28:37;15.60;99.90
31819;DHT22;18384;48.860;9.188;2022-10-17T07:31:10;15.70;99.90
31819;DHT22;18384;48.860;9.188;2022-10-17T07:33:38;15.70;99.90
31819;DHT22;18384;48.860;9.188;2022-10-17T07:36:04;15.70;99.90
31819;DHT22;18384;48.860;9.188;2022-10-17T07:38:30;15.80;99.90
31819;DHT22;18384;48.860;9.188;2022-10-17T07:40:58;15.90;99.90
31819;DHT22;18384;48.860;9.188;2022-10-17T07:43:26;15.90;99.90
31819;DHT22;18384;48.860;9.188;2022-10-17T07:45:52;16.00;99.90
31819;DHT22;18384;48.860;9.188;2022-10-17T07:48:20;16.10;99.90
31819;DHT22;18384;48.860;9.188;2022-10-17T07:50:47;16.20;99.90
31819;DHT22;18384;48.860;9.188;2022-10-17T07:53:14;16.30;99.90
31819;DHT22;18384;48.860;9.188;2022-10-17T07:55:41;16.30;99.90
31819;DHT22;18384;48.860;9.188;2022-10-17T07:58:08;16.40;99.90
31819;DHT22;18384;48.860;9.188;2022-10-17T08:00:37;16.60;99.90
31819;DHT22;18384;48.860;9.188;2022-10-17T08:03:04;16.60;99.90
31819;DHT22;18384;48.860;9.188;2022-10-17T08:05:31;16.60;99.90
31819;DHT22;18384;48.860;9.188;2022-10-17T08:07:58;16.70;99.90
31819;DHT22;18384;48.860;9.188;2022-10-17T08:10:24;16.70;99.90
31819;DHT22;18384;48.860;9.188;2022-10-17T08:12:55;16.80;99.90
31819;DHT22;18384;48.860;9.188;2022-10-17T08:15:23;16.90;99.90
31819;DHT22;18384;48.860;9.188;2022-10-17T08:17:49;16.90;99.90
31819;DHT22;18384;48.860;9.188;2022-10-17T08:20:16;17.00;99.90
31819;DHT22;18384;48.860;9.188;2022-10-17T08:22:42;17.10;99.90
31819;DHT22;18384;48.860;9.188;2022-10-17T08:25:08;17.10;99.90
31819;DHT22;18384;48.860;9.188;2022-10-17T08:27:35;17.20;99.90
31819;DHT22;18384;48.860;9.188;2022-10-17T08:30:01;17.20;99.90
31819;DHT22;18384;48.860;9.188;2022-10-17T08:32:27;17.20;99.90
31819;DHT22;18384;48.860;9.188;2022-10-17T08:34:55;17.30;99.90
31819;DHT22;18384;48.860;9.188;2022-10-17T08:37:22;17.30;99.90
31819;DHT22;18384;48.860;9.188;2022-10-17T08:39:48;17.40;99.90
31819;DHT22;18384;48.860;9.188;2022-10-17T08:48:26;17.50;99.90
31819;DHT22;18384;48.860;9.188;2022-10-17T08:51:48;18.10;99.90
31819;DHT22;18384;48.860;9.188;2022-10-17T08:54:23;17.70;99.90
31819;DHT22;18384;48.860;9.188;2022-10-17T08:56:54;17.80;99.90
31819;DHT22;18384;48.860;9.188;2022-10-17T08:59:26;17.80;99.90
31819;DHT22;18384;48.860;9.188;2022-10-17T09:05:27;17.90;99.90
31819;DHT22;18384;48.860;9.188;2022-10-17T09:08:18;18.00;99.90
31819;DHT22;18384;48.860;9.188;2022-10-17T09:11:31;18.10;99.90
31819;DHT22;18384;48.860;9.188;2022-10-17T09:20:59;18.30;99.90
31819;DHT22;18384;48.860;9.188;2022-10-17T09:23:52;18.30;99.90
31819;DHT22;18384;48.860;9.188;2022-10-17T09:26:20;18.30;99.90
31819;DHT22;18384;48.860;9.188;2022-10-17T09:28:51;18.40;99.90
31819;DHT22;18384;48.860;9.188;2022-10-17T09:31:24;18.30;99.90
31819;DHT22;18384;48.860;9.188;2022-10-17T09:33:54;18.40;99.90
31819;DHT22;18384;48.860;9.188;2022-10-17T09:36:31;18.40;99.90
31819;DHT22;18384;48.860;9.188;2022-10-17T09:39:04;18.50;99.90
31819;DHT22;18384;48.860;9.188;2022-10-17T09:41:50;18.50;99.90
31819;DHT22;18384;48.860;9.188;2022-10-17T09:44:33;18.60;99.90
31819;DHT22;18384;48.860;9.188;2022-10-17T09:47:43;18.60;99.90
31819;DHT22;18384;48.860;9.188;2022-10-17T09:50:30;18.70;99.90
31819;DHT22;18384;48.860;9.188;2022-10-17T09:53:12;18.80;99.90
31819;DHT22;18384;48.860;9.188;2022-10-17T09:55:43;18.90;99.90
31819;DHT22;18384;48.860;9.188;2022-10-17T09:58:13;19.00;99.90
31819;DHT22;18384;48.860;9.188;2022-10-17T10:00:42;19.00;99.90
31819;DHT22;18384;48.860;9.188;2022-10-17T10:03:20;19.10;99.90
31819;DHT22;18384;48.860;9.188;2022-10-17T10:06:04;19.10;99.90
31819;DHT22;18384;48.860;9.188;2022-10-17T10:08:50;19.20;99.90
31819;DHT22;18384;48.860;9.188;2022-10-17T10:11:47;19.30;99.90
31819;DHT22;18384;48.860;9.188;2022-10-17T10:14:29;19.40;99.90
31819;DHT22;18384;48.860;9.188;2022-10-17T10:17:01;19.60;99.90
31819;DHT22;18384;48.860;9.188;2022-10-17T10:19:37;19.60;99.90
31819;DHT22;18384;48.860;9.188;2022-10-17T10:22:18;19.70;99.90
31819;DHT22;18384;48.860;9.188;2022-10-17T10:24:45;19.70;99.90
31819;DHT22;18384;48.860;9.188;2022-10-17T10:27:13;19.70;99.90
31819;DHT22;18384;48.860;9.188;2022-10-17T10:29:42;19.80;99.90
31819;DHT22;18384;48.860;9.188;2022-10-17T10:32:28;19.90;99.90
31819;DHT22;18384;48.860;9.188;2022-10-17T10:35:05;20.00;99.90
31819;DHT22;18384;48.860;9.188;2022-10-17T10:37:57;20.10;99.90
31819;DHT22;18384;48.860;9.188;2022-10-17T10:40:29;20.20;99.90
31819;DHT22;18384;48.860;9.188;2022-10-17T10:43:44;20.30;99.90
31819;DHT22;18384;48.860;9.188;2022-10-17T10:48:57;20.50;99.90
31819;DHT22;18384;48.860;9.188;2022-10-17T10:51:37;20.70;99.90
31819;DHT22;18384;48.860;9.188;2022-10-17T10:54:45;20.80;99.90
31819;DHT22;18384;48.860;9.188;2022-10-17T10:57:19;21.00;99.90
31819;DHT22;18384;48.860;9.188;2022-10-17T10:59:56;21.00;99.90
31819;DHT22;18384;48.860;9.188;2022-10-17T11:03:15;21.00;99.90
31819;DHT22;18384;48.860;9.188;2022-10-17T11:06:12;21.00;99.90
31819;DHT22;18384;48.860;9.188;2022-10-17T11:08:46;21.00;99.90
31819;DHT22;18384;48.860;9.188;2022-10-17T11:11:38;21.00;99.90
31819;DHT22;18384;48.860;9.188;2022-10-17T11:14:20;21.10;99.90
31819;DHT22;18384;48.860;9.188;2022-10-17T11:17:19;21.00;99.90
31819;DHT22;18384;48.860;9.188;2022-10-17T11:20:58;21.20;99.90
31819;DHT22;18384;48.860;9.188;2022-10-17T11:23:41;21.20;99.90
31819;DHT22;18384;48.860;9.188;2022-10-17T11:26:25;21.30;99.90
31819;DHT22;18384;48.860;9.188;2022-10-17T11:28:54;21.30;99.90
31819;DHT22;18384;48.860;9.188;2022-10-17T11:31:23;21.40;99.90
31819;DHT22;18384;48.860;9.188;2022-10-17T11:34:00;21.50;99.90
31819;DHT22;18384;48.860;9.188;2022-10-17T11:36:31;21.60;99.90
31819;DHT22;18384;48.860;9.188;2022-10-17T11:39:20;21.60;99.80
31819;DHT22;18384;48.860;9.188;2022-10-17T11:42:02;21.70;99.50
31819;DHT22;18384;48.860;9.188;2022-10-17T11:44:37;21.80;99.20
31819;DHT22;18384;48.860;9.188;2022-10-17T11:47:30;21.80;98.90
31819;DHT22;18384;48.860;9.188;2022-10-17T11:50:47;21.90;98.70
31819;DHT22;18384;48.860;9.188;2022-10-17T11:53:26;22.00;98.60
31819;DHT22;18384;48.860;9.188;2022-10-17T11:55:57;22.10;98.60
31819;DHT22;18384;48.860;9.188;2022-10-17T11:58:37;22.10;96.60
31819;DHT22;18384;48.860;9.188;2022-10-17T12:01:36;22.20;96.90
31819;DHT22;18384;48.860;9.188;2022-10-17T12:04:51;22.20;96.10
31819;DHT22;18384;48.860;9.188;2022-10-17T12:07:44;22.30;95.90
31819;DHT22;18384;48.860;9.188;2022-10-17T12:10:38;22.20;95.60
31819;DHT22;18384;48.860;9.188;2022-10-17T12:18:01;22.20;95.70
31819;DHT22;18384;48.860;9.188;2022-10-17T12:20:34;22.30;95.20
31819;DHT22;18384;48.860;9.188;2022-10-17T12:23:18;22.30;95.00
31819;DHT22;18384;48.860;9.188;2022-10-17T12:25:53;22.30;95.40
31819;DHT22;18384;48.860;9.188;2022-10-17T12:30:23;22.40;95.70
31819;DHT22;18384;48.860;9.188;2022-10-17T12:33:21;22.40;95.40
31819;DHT22;18384;48.860;9.188;2022-10-17T12:42:47;22.40;95.60
31819;DHT22;18384;48.860;9.188;2022-10-17T12:45:52;22.50;94.90
31819;DHT22;18384;48.860;9.188;2022-10-17T12:55:12;22.50;95.20
31819;DHT22;18384;48.860;9.188;2022-10-17T12:57:50;22.60;96.10
31819;DHT22;18384;48.860;9.188;2022-10-17T13:01:28;22.70;96.30
31819;DHT22;18384;48.860;9.188;2022-10-17T13:03:57;22.60;96.60
31819;DHT22;18384;48.860;9.188;2022-10-17T13:06:28;22.70;96.70
31819;DHT22;18384;48.860;9.188;2022-10-17T13:09:03;22.60;96.50
31819;DHT22;18384;48.860;9.188;2022-10-17T13:11:32;22.50;96.40
31819;DHT22;18384;48.860;9.188;2022-10-17T13:14:02;22.60;95.80
31819;DHT22;18384;48.860;9.188;2022-10-17T13:16:36;22.50;95.80
31819;DHT22;18384;48.860;9.188;2022-10-17T13:19:13;22.50;95.50
31819;DHT22;18384;48.860;9.188;2022-10-17T13:21:52;22.50;95.60
31819;DHT22;18384;48.860;9.188;2022-10-17T13:24:30;22.50;95.30
31819;DHT22;18384;48.860;9.188;2022-10-17T13:26:58;22.50;95.30
31819;DHT22;18384;48.860;9.188;2022-10-17T13:29:25;22.50;95.60
31819;DHT22;18384;48.860;9.188;2022-10-17T13:31:59;22.40;95.80
31819;DHT22;18384;48.860;9.188;2022-10-17T13:34:30;22.40;95.70
31819;DHT22;18384;48.860;9.188;2022-10-17T13:37:02;22.40;95.50
31819;DHT22;18384;48.860;9.188;2022-10-17T13:39:39;22.40;95.60
31819;DHT22;18384;48.860;9.188;2022-10-17T13:42:23;22.40;95.80
31819;DHT22;18384;48.860;9.188;2022-10-17T13:44:52;22.40;95.50
31819;DHT22;18384;48.860;9.188;2022-10-17T13:47:38;22.40;95.10
31819;DHT22;18384;48.860;9.188;2022-10-17T13:50:05;22.40;95.10
31819;DHT22;18384;48.860;9.188;2022-10-17T13:52:32;22.40;94.80
31819;DHT22;18384;48.860;9.188;2022-10-17T13:55:13;22.40;95.00
31819;DHT22;18384;48.860;9.188;2022-10-17T13:57:41;22.40;94.70
31819;DHT22;18384;48.860;9.188;2022-10-17T14:00:15;22.40;95.10
31819;DHT22;18384;48.860;9.188;2022-10-17T14:02:44;22.40;95.00
31819;DHT22;18384;48.860;9.188;2022-10-17T14:05:16;22.50;94.50
31819;DHT22;18384;48.860;9.188;2022-10-17T14:07:55;22.30;94.50
31819;DHT22;18384;48.860;9.188;2022-10-17T14:10:35;22.30;94.50
31819;DHT22;18384;48.860;9.188;2022-10-17T14:13:03;22.30;94.80
31819;DHT22;18384;48.860;9.188;2022-10-17T14:15:34;22.20;95.10
31819;DHT22;18384;48.860;9.188;2022-10-17T14:18:07;22.20;95.20
31819;DHT22;18384;48.860;9.188;2022-10-17T14:20:35;22.20;95.20
31819;DHT22;18384;48.860;9.188;2022-10-17T14:23:01;22.20;95.30
31819;DHT22;18384;48.860;9.188;2022-10-17T14:25:34;22.20;95.50
31819;DHT22;18384;48.860;9.188;2022-10-17T14:28:14;22.20;95.30
31819;DHT22;18384;48.860;9.188;2022-10-17T14:30:46;22.20;95.30
31819;DHT22;18384;48.860;9.188;2022-10-17T14:33:23;22.10;95.30
31819;DHT22;18384;48.860;9.188;2022-10-17T14:35:58;22.10;95.30
31819;DHT22;18384;48.860;9.188;2022-10-17T14:38:25;22.10;95.60
31819;DHT22;18384;48.860;9.188;2022-10-17T14:41:00;22.10;95.10
31819;DHT22;18384;48.860;9.188;2022-10-17T14:43:58;22.10;95.00
31819;DHT22;18384;48.860;9.188;2022-10-17T14:46:29;22.10;95.00
31819;DHT22;18384;48.860;9.188;2022-10-17T14:49:07;22.10;95.00
31819;DHT22;18384;48.860;9.188;2022-10-17T14:55:24;22.20;94.60
31819;DHT22;18384;48.860;9.188;2022-10-17T14:57:52;22.20;94.80
31819;DHT22;18384;48.860;9.188;2022-10-17T15:00:18;22.20;95.00
31819;DHT22;18384;48.860;9.188;2022-10-17T15:02:47;22.20;95.00
31819;DHT22;18384;48.860;9.188;2022-10-17T15:05:15;22.10;94.90
31819;DHT22;18384;48.860;9.188;2022-10-17T15:07:42;22.10;94.80
31819;DHT22;18384;48.860;9.188;2022-10-17T15:10:34;22.10;94.80
31819;DHT22;18384;48.860;9.188;2022-10-17T15:13:02;22.00;94.70
31819;DHT22;18384;48.860;9.188;2022-10-17T15:15:29;22.00;94.60
31819;DHT22;18384;48.860;9.188;2022-10-17T15:17:56;22.00;94.70
31819;DHT22;18384;48.860;9.188;2022-10-17T15:20:23;21.90;94.80
31819;DHT22;18384;48.860;9.188;2022-10-17T15:23:00;21.90;94.90
31819;DHT22;18384;48.860;9.188;2022-10-17T15:25:27;21.90;95.20
31819;DHT22;18384;48.860;9.188;2022-10-17T15:27:55;21.80;94.70
31819;DHT22;18384;48.860;9.188;2022-10-17T15:30:29;21.80;94.90
31819;DHT22;18384;48.860;9.188;2022-10-17T15:32:57;21.80;95.10
31819;DHT22;18384;48.860;9.188;2022-10-17T15:35:24;21.70;94.70
31819;DHT22;18384;48.860;9.188;2022-10-17T15:37:51;21.70;94.90
31819;DHT22;18384;48.860;9.188;2022-10-17T15:40:18;21.70;94.90
31819;DHT22;18384;48.860;9.188;2022-10-17T15:42:48;21.70;95.00
31819;DHT22;18384;48.860;9.188;2022-10-17T15:45:16;21.70;95.00
31819;DHT22;18384;48.860;9.188;2022-10-17T15:47:59;21.70;95.30
31819;DHT22;18384;48.860;9.188;2022-10-17T15:50:29;21.80;95.50
31819;DHT22;18384;48.860;9.188;2022-10-17T15:52:55;21.70;95.60
31819;DHT22;18384;48.860;9.188;2022-10-17T15:55:21;21.60;95.70
31819;DHT22;18384;48.860;9.188;2022-10-17T15:57:48;21.70;95.50
31819;DHT22;18384;48.860;9.188;2022-10-17T16:00:20;21.60;95.70
31819;DHT22;18384;48.860;9.188;2022-10-17T16:02:47;21.60;95.70
31819;DHT22;18384;48.860;9.188;2022-10-17T16:05:20;21.40;95.50
31819;DHT22;18384;48.860;9.188;2022-10-17T16:07:48;21.50;95.70
31819;DHT22;18384;48.860;9.188;2022-10-17T16:10:15;21.40;96.40
31819;DHT22;18384;48.860;9.188;2022-10-17T16:12:42;21.30;96.60
31819;DHT22;18384;48.860;9.188;2022-10-17T16:15:20;21.20;97.10
31819;DHT22;18384;48.860;9.188;2022-10-17T16:17:49;21.10;97.30
31819;DHT22;18384;48.860;9.188;2022-10-17T16:20:20;20.90;97.20
31819;DHT22;18384;48.860;9.188;2022-10-17T16:22:46;20.80;97.30
31819;DHT22;18384;48.860;9.188;2022-10-17T16:25:22;20.80;97.40
31819;DHT22;18384;48.860;9.188;2022-10-17T16:27:52;20.70;97.60
31819;DHT22;18384;48.860;9.188;2022-10-17T16:30:20;20.60;97.70
31819;DHT22;18384;48.860;9.188;2022-10-17T16:32:48;20.50;98.30
31819;DHT22;18384;48.860;9.188;2022-10-17T16:35:20;20.40;98.50
31819;DHT22;18384;48.860;9.188;2022-10-17T16:37:48;20.30;98.90
31819;DHT22;18384;48.860;9.188;2022-10-17T16:40:14;20.20;99.10
31819;DHT22;18384;48.860;9.188;2022-10-17T16:42:40;20.10;99.30
31819;DHT22;18384;48.860;9.188;2022-10-17T16:45:14;19.90;99.40
31819;DHT22;18384;48.860;9.188;2022-10-17T16:47:42;19.90;99.60
31819;DHT22;18384;48.860;9.188;2022-10-17T16:50:09;20.60;99.80
31819;DHT22;18384;48.860;9.188;2022-10-17T16:52:35;19.70;99.80
31819;DHT22;18384;48.860;9.188;2022-10-17T16:55:01;19.50;99.90
31819;DHT22;18384;48.860;9.188;2022-10-17T16:57:27;19.40;99.90
31819;DHT22;18384;48.860;9.188;2022-10-17T16:59:53;19.40;99.90
31819;DHT22;18384;48.860;9.188;2022-10-17T17:02:19;19.30;99.90
31819;DHT22;18384;48.860;9.188;2022-10-17T17:04:46;19.20;99.90
31819;DHT22;18384;48.860;9.188;2022-10-17T17:07:12;19.20;99.90
31819;DHT22;18384;48.860;9.188;2022-10-17T17:09:38;19.00;99.90
31819;DHT22;18384;48.860;9.188;2022-10-17T17:12:05;19.10;99.90
31819;DHT22;18384;48.860;9.188;2022-10-17T17:14:31;19.00;99.90